createdAt,value
2022-10-09T00:04:03.308Z,10.40
2022-10-09T00:08:13.084Z,10.40
2022-10-09T00:12:23.630Z,10.40
2022-10-09T00:16:33.062Z,10.30
2022-10-09T00:20:44.298Z,10.40
2022-10-09T00:24:54.136Z,10.30
2022-10-09T00:29:05.406Z,10.30
2022-10-09T00:33:15.143Z,10.20
2022-10-09T00:37:24.897Z,10.20
2022-10-09T00:41:35.698Z,10.20
2022-10-09T00:45:56.981Z,10.20
2022-10-09T00:50:15.877Z,10.20
2022-10-09T00:54:35.397Z,10.10
2022-10-09T00:58:49.502Z,10.10
2022-10-09T01:03:03.997Z,10.10
2022-10-09T01:07:40.245Z,10.00
2022-10-09T01:12:00.493Z,10.00
2022-10-09T01:16:23.663Z,9.90
2022-10-09T01:20:49.050Z,9.90
2022-10-09T01:25:09.361Z,9.80
2022-10-09T01:29:24.615Z,9.80
2022-10-09T01:33:37.354Z,9.80
2022-10-09T01:37:49.917Z,9.80
2022-10-09T01:42:02.679Z,9.80
2022-10-09T01:46:28.454Z,9.80
2022-10-09T01:50:47.372Z,9.80
2022-10-09T01:55:23.987Z,9.90
2022-10-09T01:59:40.868Z,9.90
2022-10-09T02:03:54.594Z,9.80
2022-10-09T02:08:04.796Z,9.80
2022-10-09T02:12:16.132Z,9.80
2022-10-09T02:16:37.559Z,9.80
2022-10-09T02:20:53.295Z,9.80
2022-10-09T02:25:05.128Z,9.80
2022-10-09T02:29:15.320Z,9.70
2022-10-09T02:33:29.677Z,9.70
2022-10-09T02:37:40.216Z,9.70
2022-10-09T02:41:49.426Z,9.80
2022-10-09T02:45:58.595Z,9.70
2022-10-09T02:50:09.039Z,9.60
2022-10-09T02:54:19.680Z,9.60
2022-10-09T02:58:31.410Z,9.60
2022-10-09T03:02:40.833Z,9.50
2022-10-09T03:06:49.909Z,9.50
2022-10-09T03:11:00.840Z,9.50
2022-10-09T03:15:11.363Z,9.40
2022-10-09T03:19:20.716Z,9.50
2022-10-09T03:23:29.645Z,9.50
2022-10-09T03:27:40.534Z,9.40
2022-10-09T03:31:52.734Z,9.50
2022-10-09T03:36:02.347Z,9.40
2022-10-09T03:40:12.339Z,9.40
2022-10-09T03:44:22.818Z,9.30
2022-10-09T03:48:31.850Z,9.40
2022-10-09T03:52:41.392Z,9.40
2022-10-09T03:56:50.437Z,9.30
2022-10-09T04:01:01.015Z,9.30
2022-10-09T04:05:10.916Z,9.30
2022-10-09T04:09:20.020Z,9.30
2022-10-09T04:13:29.390Z,9.30
2022-10-09T04:17:39.916Z,9.30
2022-10-09T04:21:48.904Z,9.20
2022-10-09T04:25:59.811Z,9.20
2022-10-09T04:30:10.981Z,9.20
2022-10-09T04:34:21.573Z,9.30
2022-10-09T04:38:32.900Z,9.30
2022-10-09T04:42:41.997Z,9.20
2022-10-09T04:46:52.787Z,9.20
2022-10-09T04:51:06.514Z,9.20
2022-10-09T04:55:15.607Z,9.10
2022-10-09T04:59:24.570Z,9.20
2022-10-09T05:03:33.755Z,9.20
2022-10-09T05:07:44.500Z,9.20
2022-10-09T05:11:53.557Z,9.20
2022-10-09T05:16:04.223Z,9.10
2022-10-09T05:20:13.623Z,9.10
2022-10-09T05:24:24.231Z,9.10
2022-10-09T05:28:33.629Z,9.10
2022-10-09T05:32:42.653Z,9.00
2022-10-09T05:36:51.689Z,9.00
2022-10-09T05:41:04.341Z,9.00
2022-10-09T05:45:13.784Z,8.90
2022-10-09T05:49:22.835Z,9.00
2022-10-09T05:53:32.283Z,9.00
2022-10-09T05:57:42.773Z,9.00
2022-10-09T06:01:54.834Z,8.90
2022-10-09T06:06:04.301Z,8.90
2022-10-09T06:10:13.238Z,8.90
2022-10-09T06:14:24.679Z,9.00
2022-10-09T06:18:33.899Z,9.00
2022-10-09T06:22:42.936Z,9.00
2022-10-09T06:26:52.064Z,9.00
2022-10-09T06:31:07.702Z,9.10
2022-10-09T06:35:16.988Z,9.10
2022-10-09T06:39:26.845Z,9.10
2022-10-09T06:43:36.219Z,9.20
2022-10-09T06:47:47.068Z,9.10
2022-10-09T06:51:56.516Z,9.20
2022-10-09T06:56:06.720Z,9.20
2022-10-09T07:00:16.701Z,9.20
2022-10-09T07:04:29.428Z,9.20
2022-10-09T07:08:38.783Z,9.20
2022-10-09T07:12:48.765Z,9.20
2022-10-09T07:16:59.220Z,9.30
2022-10-09T07:21:12.092Z,9.40
2022-10-09T07:25:23.412Z,9.60
2022-10-09T07:29:35.603Z,9.70
2022-10-09T07:33:50.709Z,9.80
2022-10-09T07:38:06.192Z,10.00
2022-10-09T07:42:18.463Z,10.20
2022-10-09T07:46:34.022Z,10.40
2022-10-09T07:50:45.795Z,10.50
2022-10-09T07:55:00.202Z,10.80
2022-10-09T07:59:14.503Z,11.00
2022-10-09T08:03:25.370Z,11.20
2022-10-09T08:07:35.099Z,11.50
2022-10-09T08:11:45.807Z,11.80
2022-10-09T08:15:55.654Z,12.00
2022-10-09T08:20:05.958Z,12.30
2022-10-09T08:24:15.161Z,12.50
2022-10-09T08:28:26.139Z,12.70
2022-10-09T08:32:36.121Z,13.00
2022-10-09T08:36:45.230Z,13.20
2022-10-09T08:41:03.670Z,13.30
2022-10-09T08:45:17.142Z,13.60
2022-10-09T08:49:33.490Z,13.70
2022-10-09T08:53:48.876Z,14.00
2022-10-09T08:58:04.624Z,14.20
2022-10-09T09:02:30.952Z,14.30
2022-10-09T09:06:46.705Z,14.50
2022-10-09T09:11:07.396Z,14.70
2022-10-09T09:15:36.214Z,14.80
2022-10-09T09:20:06.338Z,15.00
2022-10-09T09:24:18.901Z,15.20
2022-10-09T09:28:31.235Z,15.30
2022-10-09T09:32:45.026Z,15.40
2022-10-09T09:36:58.673Z,15.60
2022-10-09T09:41:07.938Z,15.90
2022-10-09T09:45:23.691Z,16.20
2022-10-09T09:49:32.706Z,16.20
2022-10-09T09:53:47.210Z,16.40
2022-10-09T09:58:03.751Z,16.70
2022-10-09T10:02:16.096Z,16.90
2022-10-09T10:06:27.430Z,17.10
2022-10-09T10:10:38.171Z,17.10
2022-10-09T10:14:52.361Z,16.90
2022-10-09T10:19:01.370Z,16.70
2022-10-09T10:23:36.486Z,16.60
2022-10-09T10:27:51.068Z,16.70
2022-10-09T10:32:07.063Z,16.70
2022-10-09T10:36:16.547Z,16.60
2022-10-09T10:40:29.646Z,16.40
2022-10-09T10:44:50.773Z,16.20
2022-10-09T10:49:01.645Z,16.20
2022-10-09T10:53:18.492Z,16.50
2022-10-09T10:57:35.323Z,16.70
2022-10-09T11:01:55.666Z,17.00
2022-10-09T11:06:13.341Z,17.40
2022-10-09T11:10:34.897Z,17.60
2022-10-09T11:14:51.945Z,17.80
2022-10-09T11:19:20.088Z,18.00
2022-10-09T11:23:41.769Z,18.20
2022-10-09T11:27:55.191Z,18.20
2022-10-09T11:32:11.887Z,18.30
2022-10-09T11:36:27.533Z,18.30
2022-10-09T11:40:41.707Z,18.30
2022-10-09T11:45:04.793Z,18.20
2022-10-09T11:49:34.144Z,18.30
2022-10-09T11:53:46.590Z,18.30
2022-10-09T11:57:56.385Z,18.20
2022-10-09T12:02:31.940Z,18.20
2022-10-09T12:06:51.243Z,18.40
2022-10-09T12:11:12.367Z,18.50
2022-10-09T12:15:28.878Z,18.60
2022-10-09T12:19:40.629Z,18.50
2022-10-09T12:23:51.726Z,18.60
2022-10-09T12:28:03.472Z,18.80
2022-10-09T12:32:31.185Z,18.90
2022-10-09T12:36:40.358Z,19.10
2022-10-09T12:40:50.472Z,19.20
2022-10-09T12:45:01.320Z,19.10
2022-10-09T12:49:21.045Z,19.00
2022-10-09T12:53:30.532Z,18.80
2022-10-09T12:57:41.190Z,18.80
2022-10-09T13:01:53.369Z,18.90
2022-10-09T13:06:03.571Z,18.80
2022-10-09T13:10:20.698Z,18.80
2022-10-09T13:14:36.500Z,18.80
2022-10-09T13:18:57.976Z,18.70
2022-10-09T13:23:08.128Z,18.80
2022-10-09T13:27:19.739Z,18.90
2022-10-09T13:31:28.952Z,18.50
2022-10-09T13:35:39.567Z,18.20
2022-10-09T13:39:48.790Z,18.00
2022-10-09T13:43:57.934Z,18.00
2022-10-09T13:48:07.126Z,17.90
2022-10-09T13:52:18.379Z,18.00
2022-10-09T13:56:27.879Z,17.90
2022-10-09T14:00:37.819Z,17.80
2022-10-09T14:04:46.945Z,17.60
2022-10-09T14:08:57.516Z,17.40
2022-10-09T14:13:06.763Z,17.20
2022-10-09T14:17:16.005Z,17.00
2022-10-09T14:21:25.377Z,17.00
2022-10-09T14:25:37.569Z,17.10
2022-10-09T14:29:47.811Z,17.40
2022-10-09T14:33:59.470Z,17.60
2022-10-09T14:38:08.422Z,17.70
2022-10-09T14:42:18.939Z,17.80
2022-10-09T14:46:29.240Z,18.00
2022-10-09T14:50:38.344Z,17.80
2022-10-09T14:54:47.403Z,17.70
2022-10-09T14:59:00.628Z,17.50
2022-10-09T15:03:09.510Z,17.20
2022-10-09T15:07:18.515Z,17.00
2022-10-09T15:11:27.636Z,16.80
2022-10-09T15:15:38.370Z,16.70
2022-10-09T15:19:47.383Z,16.70
2022-10-09T15:23:57.631Z,16.70
2022-10-09T15:28:07.659Z,16.70
2022-10-09T15:32:18.276Z,16.80
2022-10-09T15:36:27.564Z,16.90
2022-10-09T15:40:45.197Z,16.90
2022-10-09T15:44:54.587Z,16.90
2022-10-09T15:49:04.981Z,16.80
2022-10-09T15:53:15.145Z,16.80
2022-10-09T15:57:24.259Z,16.70
2022-10-09T16:01:33.381Z,16.70
2022-10-09T16:05:47.949Z,16.70
2022-10-09T16:09:57.063Z,16.60
2022-10-09T16:14:06.160Z,16.60
2022-10-09T16:18:16.550Z,16.50
2022-10-09T16:22:27.766Z,16.40
2022-10-09T16:26:38.958Z,16.30
2022-10-09T16:30:48.741Z,16.30
2022-10-09T16:34:59.121Z,16.30
2022-10-09T16:39:12.721Z,16.20
2022-10-09T16:43:25.441Z,16.20
2022-10-09T16:47:37.358Z,16.20
2022-10-09T16:51:51.855Z,16.20
2022-10-09T16:56:15.648Z,16.20
2022-10-09T17:00:29.860Z,16.10
2022-10-09T17:04:43.343Z,16.10
2022-10-09T17:08:58.246Z,16.00
2022-10-09T17:13:14.025Z,16.00
2022-10-09T17:17:28.255Z,16.00
2022-10-09T17:21:42.510Z,16.00
2022-10-09T17:25:55.757Z,16.00
2022-10-09T17:30:12.148Z,16.10
2022-10-09T17:34:25.303Z,16.10
2022-10-09T17:38:39.792Z,16.10
2022-10-09T17:42:53.090Z,16.10
2022-10-09T17:47:08.470Z,16.10
2022-10-09T17:51:22.980Z,16.10
2022-10-09T17:55:35.242Z,16.20
2022-10-09T17:59:47.626Z,16.20
2022-10-09T18:04:01.310Z,16.20
2022-10-09T18:08:15.190Z,16.20
2022-10-09T18:12:26.708Z,16.20
2022-10-09T18:16:41.691Z,16.30
2022-10-09T18:20:53.545Z,16.30
2022-10-09T18:25:03.591Z,16.30
2022-10-09T18:29:15.318Z,16.30
2022-10-09T18:33:28.114Z,16.30
2022-10-09T18:37:41.493Z,16.30
2022-10-09T18:41:52.294Z,16.40
2022-10-09T18:46:05.275Z,16.40
2022-10-09T18:50:16.117Z,16.40
2022-10-09T18:54:32.426Z,16.50
2022-10-09T18:58:43.494Z,16.50
2022-10-09T19:02:56.103Z,16.40
2022-10-09T19:07:05.970Z,16.50
2022-10-09T19:11:17.338Z,16.50
2022-10-09T19:15:27.574Z,16.50
2022-10-09T19:19:37.186Z,16.50
2022-10-09T19:23:52.234Z,16.50
2022-10-09T19:28:06.420Z,16.60
2022-10-09T19:32:22.961Z,16.60
2022-10-09T19:36:37.442Z,16.60
2022-10-09T19:40:52.673Z,16.70
2022-10-09T19:45:05.339Z,16.70
2022-10-09T19:49:15.954Z,16.70
2022-10-09T19:53:26.078Z,16.70
2022-10-09T19:57:40.841Z,16.70
2022-10-09T20:01:57.625Z,16.80
2022-10-09T20:06:13.916Z,16.70
2022-10-09T20:10:28.178Z,16.70
2022-10-09T20:14:43.477Z,16.70
2022-10-09T20:19:03.656Z,16.80
2022-10-09T20:23:19.307Z,16.80
2022-10-09T20:27:37.452Z,16.80
2022-10-09T20:31:53.651Z,16.90
2022-10-09T20:36:10.889Z,16.90
2022-10-09T20:40:25.195Z,16.90
2022-10-09T20:44:39.632Z,16.90
2022-10-09T20:48:55.437Z,16.90
2022-10-09T20:53:13.494Z,16.90
2022-10-09T20:57:28.818Z,16.90
2022-10-09T21:01:44.399Z,16.90
2022-10-09T21:05:57.853Z,16.90
2022-10-09T21:10:14.617Z,16.90
2022-10-09T21:14:32.188Z,16.90
2022-10-09T21:18:46.252Z,16.90
2022-10-09T21:22:58.779Z,16.80
2022-10-09T21:27:12.143Z,16.80
2022-10-09T21:31:27.227Z,16.80
2022-10-09T21:35:42.072Z,16.80
2022-10-09T21:39:53.088Z,16.80
2022-10-09T21:44:06.843Z,16.70
2022-10-09T21:48:18.573Z,16.70
2022-10-09T21:52:29.560Z,16.70
2022-10-09T21:56:39.517Z,16.70
2022-10-09T22:00:59.036Z,16.70
2022-10-09T22:05:10.671Z,16.80
2022-10-09T22:09:21.051Z,16.70
2022-10-09T22:13:30.916Z,16.70
2022-10-09T22:17:42.428Z,16.70
2022-10-09T22:21:51.881Z,16.70
2022-10-09T22:26:04.752Z,16.70
2022-10-09T22:30:15.686Z,16.70
2022-10-09T22:34:28.182Z,16.70
2022-10-09T22:38:41.123Z,16.70
2022-10-09T22:42:53.238Z,16.60
2022-10-09T22:47:04.608Z,16.60
2022-10-09T22:51:18.790Z,16.60
2022-10-09T22:55:29.511Z,16.50
2022-10-09T22:59:42.057Z,16.50
2022-10-09T23:03:57.480Z,16.40
2022-10-09T23:08:14.666Z,16.40
2022-10-09T23:12:30.459Z,16.30
2022-10-09T23:16:46.874Z,16.30
2022-10-09T23:21:02.576Z,16.20
2022-10-09T23:25:21.267Z,16.30
2022-10-09T23:29:36.085Z,16.30
2022-10-09T23:33:53.294Z,16.30
2022-10-09T23:38:09.857Z,16.30
2022-10-09T23:42:27.177Z,16.30
2022-10-09T23:46:42.636Z,16.30
2022-10-09T23:50:58.980Z,16.30
2022-10-09T23:55:15.659Z,16.30
2022-10-09T23:59:32.692Z,16.30
